METAR Data
IDs: Format: Raw Decoded Include TAF

Data at: 0207 UTC 25 Mar 2019

KAXA 250155Z AUTO 02007KT 10SM OVC036 07/07 A3015 RMK AO2 PWINO
KAXA 250135Z AUTO 02006KT 10SM SCT037 OVC043 07/07 A3014 RMK AO2 PWINO
KAXA 250115Z AUTO 01006KT 10SM OVC041 07/07 A3013 RMK AO2 PWINO
KAXA 250055Z AUTO 02009KT 10SM OVC042 08/07 A3012 RMK AO2 PWINO
KAXA 250035Z AUTO 02010KT 10SM OVC045 08/07 A3012 RMK AO2 PWINO
KAXA 250015Z AUTO 02010KT 10SM OVC046 08/07 A3011 RMK AO2 PWINO
KAXA 242355Z AUTO 03011KT 10SM BKN048 BKN060 OVC090 08/07 A3010 RMK AO2 PWINO
KAXA 242335Z AUTO 03011KT 10SM FEW050 SCT060 BKN090 09/07 A3009 RMK AO2 PWINO
KAXA 242315Z AUTO 02013KT 10SM SCT049 BKN060 OVC090 09/08 A3009 RMK AO2 PWINO
KAXA 242255Z AUTO 03014G19KT 10SM FEW037 OVC049 10/08 A3008 RMK AO2 PWINO
KAXA 242235Z AUTO 04012KT 10SM FEW036 OVC050 11/08 A3008 RMK AO2 PWINO
KAXA 242215Z AUTO 04012KT 10SM SCT025 BKN034 OVC050 10/08 A3007 RMK AO2 PWINO
KAXA 242155Z AUTO 04011KT 10SM SCT022 BKN026 OVC033 10/08 A3007 RMK AO2 PWINO
KAXA 242135Z AUTO 04011KT 10SM BKN019 BKN024 OVC031 10/08 A3006 RMK AO2 PWINO
KAXA 242115Z AUTO 04010KT 10SM SCT017 SCT023 OVC030 10/09 A3006 RMK AO2 PWINO
KAXA 242055Z AUTO 04011KT 10SM BKN018 OVC023 10/09 A3005 RMK AO2 PWINO
KAXA 242035Z AUTO 05011KT 10SM BKN018 OVC025 10/09 A3004 RMK AO2 PWINO
KAXA 242015Z AUTO 05010KT 9SM BKN018 OVC024 10/09 A3004 RMK AO2 PWINO
KAXA 241955Z AUTO 04010G15KT 9SM OVC015 09/09 A3004 RMK AO2 PWINO
KAXA 241935Z AUTO 03011KT 8SM BKN016 OVC020 09/09 A3004 RMK AO2 PWINO
KAXA 241915Z AUTO 05011KT 7SM FEW014 OVC019 09/09 A3004 RMK AO2 PWINO
KAXA 241855Z AUTO 05010KT 6SM BR FEW006 SCT015 BKN019 08/08 A3004 RMK AO2 PWINO
KAXA 241835Z AUTO 04008KT 4SM BR BKN006 BKN014 BKN019 07/07 A3005 RMK AO2 PWINO
KAXA 241815Z AUTO 04010KT 4SM BR BKN006 BKN020 BKN031 07/07 A3004 RMK AO2 PWINO
KAXA 241755Z AUTO 04008KT 4SM BR SCT005 SCT020 BKN031 07/07 A3004 RMK AO2 PWINO
KAXA 241735Z AUTO 05007KT 3SM BR BKN004 OVC013 06/06 A3004 RMK AO2 PWINO
KAXA 241715Z AUTO 04007KT 2 1/2SM BR BKN004 BKN014 06/06 A3004 RMK AO2 PWINO
KAXA 241655Z AUTO 04008KT 2 1/2SM BR BKN004 BKN013 05/05 A3004 RMK AO2 PWINO
KAXA 241635Z AUTO 03008KT 3SM BR OVC004 05/05 A3004 RMK AO2 PWINO
KAXA 241615Z AUTO 04010KT 3SM BR OVC004 05/05 A3004 RMK AO2 PWINO
KAXA 241555Z AUTO 04009KT 3SM BR BKN004 OVC017 05/05 A3003 RMK AO2 PWINO
KAXA 241535Z AUTO 05009KT 3SM BR BKN004 OVC018 06/06 A3002 RMK AO2 PWINO
KAXA 241515Z AUTO 07009KT 3SM BR BKN004 BKN018 BKN023 06/06 A3003 RMK AO2 PWINO
KAXA 241455Z AUTO 06010KT 3SM BR BKN004 OVC024 05/05 A3003 RMK AO2 PWINO
KAXA 241435Z AUTO 05010KT 3SM BR BKN004 OVC024 05/05 A3003 RMK AO2 PWINO
KAXA 241415Z AUTO 06008KT 3SM BR OVC004 05/05 A3004 RMK AO2 PWINO
KAXA 241355Z AUTO 04007KT 3SM BR BKN004 OVC024 04/04 A3003 RMK AO2 PWINO
KAXA 241335Z AUTO 03006KT 3SM BR BKN004 BKN013 OVC019 04/04 A3003 RMK AO2 PWINO
KAXA 241315Z AUTO 05005KT 3SM BR BKN004 BKN013 OVC019 04/04 A3003 RMK AO2 PWINO
KAXA 241255Z AUTO 07006KT 3SM BR OVC004 04/04 A3002 RMK AO2 PWINO
KAXA 241235Z AUTO 07004KT 3SM BR OVC004 04/04 A3002 RMK AO2 PWINO
KAXA 241215Z AUTO 10005KT 5SM BR OVC004 04/04 A3001 RMK AO2 PWINO
KAXA 241155Z AUTO 06006KT 6SM BR OVC004 04/04 A3001 RMK AO2 PWINO
KAXA 241135Z AUTO 10006KT 7SM BKN005 BKN017 OVC038 04/04 A3000 RMK AO2 PWINO
KAXA 241115Z AUTO 10006KT 9SM FEW006 OVC037 04/04 A3001 RMK AO2 PWINO
KAXA 241055Z AUTO 10007KT 10SM BKN032 OVC038 05/04 A3001 RMK AO2 PWINO
KAXA 241035Z AUTO 11007KT 6SM BR OVC030 05/04 A3001 RMK AO2 PWINO
KAXA 241015Z AUTO 10006KT 9SM FEW016 OVC030 05/04 A3001 RMK AO2 PWINO
KAXA 240955Z AUTO 09007KT 10SM BKN016 OVC030 05/05 A3001 RMK AO2 PWINO
KAXA 240935Z AUTO 09006KT 10SM FEW012 BKN017 OVC033 05/05 A3001 RMK AO2 PWINO
KAXA 240915Z AUTO 11006KT 7SM FEW017 FEW029 OVC036 05/05 A3002 RMK AO2 PWINO
KAXA 240855Z AUTO 11005KT 3SM BR BKN018 OVC037 05/05 A3002 RMK AO2 PWINO
KAXA 240835Z AUTO 10007KT 5SM BR OVC016 05/05 A3003 RMK AO2 PWINO
KAXA 240815Z AUTO 11006KT 3SM BR BKN014 OVC023 05/05 A3004 RMK AO2 PWINO
KAXA 240755Z AUTO 09005KT 6SM BR BKN024 OVC031 05/05 A3005 RMK AO2 PWINO
KAXA 240735Z AUTO 11005KT 4SM BR FEW018 BKN025 OVC031 05/05 A3005 RMK AO2 PWINO
KAXA 240715Z AUTO 09005KT 3SM BR FEW018 BKN026 OVC031 06/05 A3005 RMK AO2 PWINO
KAXA 240655Z AUTO 09006KT 9SM FEW020 OVC025 06/04 A3005 RMK AO2 PWINO
KAXA 240635Z AUTO 12005KT 6SM HZ SCT019 BKN033 OVC046 07/04 A3005 RMK AO2 PWINO
KAXA 240615Z AUTO 12006KT 10SM FEW040 BKN046 OVC050 07/04 A3005 RMK AO2 PWINO
KAXA 240555Z AUTO 12006KT 10SM BKN041 BKN050 OVC060 07/04 A3005 RMK AO2 PWINO
KAXA 240535Z AUTO 13008KT 10SM OVC042 07/04 A3005 RMK AO2 PWINO
KAXA 240515Z AUTO 12006KT 10SM SCT039 BKN050 OVC070 07/04 A3006 RMK AO2 PWINO
KAXA 240455Z AUTO 13006KT 10SM FEW050 OVC070 07/04 A3006 RMK AO2 PWINO
KAXA 240435Z AUTO 13006KT 10SM FEW050 FEW070 OVC075 07/04 A3006 RMK AO2 PWINO
KAXA 240415Z AUTO 13008KT 10SM OVC075 07/04 A3006 RMK AO2 PWINO
KAXA 240355Z AUTO 13008KT 10SM FEW070 OVC080 07/04 A3006 RMK AO2 PWINO
KAXA 240335Z AUTO 12008KT 10SM BKN065 OVC080 07/04 A3006 RMK AO2 PWINO
KAXA 240315Z AUTO 12008KT 10SM BKN065 OVC080 07/04 A3007 RMK AO2 PWINO
KAXA 240255Z AUTO 12008KT 10SM BKN065 OVC080 07/05 A3007 RMK AO2 PWINO
KAXA 240235Z AUTO 11007KT 10SM OVC065 07/05 A3007 RMK AO2 PWINO
KAXA 240215Z AUTO 11008KT 10SM BKN060 OVC070 07/05 A3007 RMK AO2 PWINO
KAXA 240155Z AUTO 11006KT 10SM FEW047 BKN055 OVC065 07/05 A3008 RMK AO2 PWINO
KAXA 240135Z AUTO 12005KT 10SM FEW047 BKN055 OVC075 08/05 A3008 RMK AO2 PWINO
KAXA 240115Z AUTO 13005KT 10SM BKN048 BKN060 OVC075 08/05 A3008 RMK AO2 PWINO
KAXA 240055Z AUTO 13006KT 10SM SCT048 BKN065 OVC075 08/05 A3008 RMK AO2 PWINO
KAXA 240035Z AUTO 13008KT 10SM FEW060 OVC070 08/05 A3008 RMK AO2 PWINO
KAXA 240015Z AUTO 12008KT 10SM BKN070 OVC080 09/04 A3008 RMK AO2 PWINO
KAXA 232355Z AUTO 12009KT 10SM BKN070 OVC085 09/05 A3008 RMK AO2 PWINO
KAXA 232335Z AUTO 12008KT 10SM OVC070 10/04 A3009 RMK AO2 PWINO
KAXA 232315Z AUTO 12006KT 10SM FEW055 BKN070 BKN085 10/04 A3009 RMK AO2 PWINO
KAXA 232255Z AUTO 13007G13KT 10SM SCT085 10/04 A3009 RMK AO2 PWINO
KAXA 232235Z AUTO 14007KT 10SM FEW070 SCT090 10/05 A3010 RMK AO2 PWINO
KAXA 232215Z AUTO 13009KT 10SM BKN095 11/04 A3010 RMK AO2 PWINO
KAXA 232155Z AUTO 12008KT 10SM FEW100 11/03 A3010 RMK AO2 PWINO
KAXA 232135Z AUTO 15008KT 10SM SCT110 11/04 A3011 RMK AO2 PWINO
KAXA 232115Z AUTO 15011KT 10SM SCT110 11/03 A3011 RMK AO2 PWINO
KAXA 232055Z AUTO 14012KT 10SM CLR 11/04 A3011 RMK AO2 PWINO
KAXA 232035Z AUTO 13007KT 10SM CLR 11/04 A3012 RMK AO2 PWINO
KAXA 232015Z AUTO 13009KT 10SM CLR 12/03 A3011 RMK AO2 PWINO
KAXA 231955Z AUTO 11007KT 10SM CLR 12/02 A3011 RMK AO2 PWINO
KAXA 231935Z AUTO 14007KT 10SM CLR 12/03 A3013 RMK AO2 PWINO
KAXA 231915Z AUTO 19007KT 10SM CLR 11/03 A3015 RMK AO2 PWINO
KAXA 231855Z AUTO 16009G15KT 10SM CLR 11/04 A3016 RMK AO2 PWINO
KAXA 231835Z AUTO 17010KT 10SM CLR 10/03 A3017 RMK AO2 PWINO
KAXA 231815Z AUTO 15011KT 10SM CLR 10/03 A3017 RMK AO2 PWINO
KAXA 231755Z AUTO 17012KT 10SM CLR 09/03 A3017 RMK AO2 PWINO
KAXA 231735Z AUTO 18010G15KT 10SM CLR 09/04 A3016 RMK AO2 PWINO
KAXA 231715Z AUTO 17012KT 10SM CLR 09/04 A3018 RMK AO2 PWINO
KAXA 231655Z AUTO 16012KT 10SM CLR 08/03 A3018 RMK AO2 PWINO
KAXA 231635Z AUTO 17011KT 10SM CLR 08/03 A3018 RMK AO2 PWINO
KAXA 231615Z AUTO 16011KT 10SM CLR 07/03 A3018 RMK AO2 PWINO
KAXA 231555Z AUTO 17011KT 10SM CLR 07/02 A3019 RMK AO2 PWINO
KAXA 231535Z AUTO 15013KT 10SM CLR 06/01 A3018 RMK AO2 PWINO
KAXA 231515Z AUTO 15010KT 10SM CLR 06/01 A3019 RMK AO2 PWINO
KAXA 231455Z AUTO 15011KT 9SM CLR 05/01 A3019 RMK AO2 PWINO
KAXA 231435Z AUTO 15009KT 10SM CLR 05/01 A3019 RMK AO2 PWINO
KAXA 231415Z AUTO 14010KT 10SM CLR 04/01 A3019 RMK AO2 PWINO